Aérodrome :
LOGIN :

S'inscrire | Disclaimer

   EN    FR    IT 

 










Légende :    VFR   VFR Marginal   IFR   IFR Intensif   IFR Très Intensif
Visi : 
Plafond : 
>= 8 km
>= 3000ft
5 à 8 km
1000 à 3000 ft
1500m à 5 km
500 à 1000 ft
800 à 1500m
200 à 500 ft
< 800m
< 200 ft
Symboles :   Orages  Brouillard  Fortes neiges  Fortes précipitations  Vent > 20 kt
SIGMETs :   Divers  Orages  Givrage  Turbulence  Onde Orograph.  Cendres Volcan.







- Altitude de l'aérodrome : 436 ft
- Code IATA : ANG
- Voir les cartes d'approche


LFBU - Angoulême Brie Champniers

DERNIER METAR :
  • 191030Z AUTO 26007KT 220V290 9999 SCT018/// BKN028/// BKN060/// ///CB 15/10 Q1009 TEMPO SHRA

METARs EXPIRÉS :
  • 191000Z AUTO 26006KT 9999 FEW013/// BKN019/// BKN025/// ///TCU 15/11 Q1009 TEMPO SHRA BKN020
  • 190930Z AUTO 27009KT 230V300 9999 SCT013/// BKN021/// BKN028/// ///TCU 14/11 Q1009 TEMPO SHRA BKN020
  • 190900Z AUTO 24004KT 190V310 9999 BKN009 BKN015 BKN022 14/11 Q1009 BECMG BKN020
  • 190830Z AUTO VRB03KT 9999 BKN007 BKN012 OVC041 12/11 Q1009 BECMG BKN020
  • 190800Z AUTO 22003KT 170V260 7000 OVC005 11/11 Q1009 TEMPO SHRA BKN020TCU

TAF AMD TAF LFBU
Valide du 19 à 08h jusqu'au 20 à 06h UTC


190806Z 1908/2006 23005KT 9999 BKN020
TEMPO 1908/1910 BKN005
TEMPO 1911/1918 30010KT SHRA BKN020TCU
PROB40 1922/2006 3000 -RA BKN004
Pas de NOTAMs connus pour ce terrain.



MET'MAP, la Météo Aéronautique d'un coup d'oeil ! - Copyright ORBIFLY Décembre 2007 - Disclaimer

ORBIFLY MET'MAP TEAM :

Programmation & Développement : Alexandra Zaïnal
Conception & Développement : Baudouin d'Aumeries
Co-Programmation & Développement : Marc-Olivier Méhu
Soutien technique & logistique : Manuel Goepfert

Contact : metmap@orbifly.com




SOURCES & CREDITS :

   NOAA